Terminal Aerodrome Forecast
Issued by NWS

Home | Current Version | Previous Version | Text Only | Print | Product List | Glossary On
Versions: 1 2 3 4 5 6 7 8 9 10 11 12
000
FTUS45 KVEF 180500
TAFVGT
TAF
KVGT 180528Z 1806/1906 18006KT P6SM SKC
     FM180900 VRB05KT P6SM FEW150
     FM181500 13007KT P6SM SCT150
     FM182000 20013G20KT P6SM SCT150
     FM190300 23008KT P6SM SCT250=

USA.gov is the U.S. government's official web portal to all federal, state and local government web resources and services.